Time;durP1;ratioP1;P1;durP2;ratioP2;P2;SDS_P1;SDS_P2;PMS_P1;PMS_P2;Temp;Humidity;BMP_temperature;BMP_pressure;BME280_temperature;BME280_humidity;BME280_pressure;Samples;Min_cycle;Max_cycle;Signal;HPM_P1;HPM_P2
2022/04/06 00:02:07;;;;;;;4.85;2.55;;;9.80;90.50;;;;;;5112542;28;20039;-71
2022/04/06 00:04:33;;;;;;;6.50;2.85;;;9.80;90.50;;;;;;5112299;28;20032;-71
2022/04/06 00:06:58;;;;;;;5.88;2.78;;;9.80;90.50;;;;;;5112669;28;20039;-71
2022/04/06 00:09:24;;;;;;;4.43;2.25;;;9.90;90.50;;;;;;5112318;28;20396;-71
2022/04/06 00:11:50;;;;;;;6.82;2.78;;;9.90;90.50;;;;;;5112276;28;20051;-71
2022/04/06 00:14:16;;;;;;;5.43;2.85;;;9.90;90.50;;;;;;5112213;28;20040;-71
2022/04/06 00:16:43;;;;;;;5.65;2.90;;;9.80;90.40;;;;;;5112429;28;20036;-71
2022/04/06 00:19:08;;;;;;;5.55;2.65;;;9.80;90.40;;;;;;5112954;28;20039;-71
2022/04/06 00:21:34;;;;;;;4.63;2.55;;;9.90;90.40;;;;;;5112284;28;20035;-70
2022/04/06 00:24:00;;;;;;;5.55;2.65;;;9.90;90.40;;;;;;5112717;28;20032;-71
2022/04/06 00:26:25;;;;;;;4.80;2.50;;;9.90;90.40;;;;;;5076990;28;20370;-70
2022/04/06 00:28:51;;;;;;;4.35;2.35;;;9.90;90.40;;;;;;5112047;28;20036;-71
2022/04/06 00:31:17;;;;;;;5.35;2.80;;;9.90;90.70;;;;;;5114078;28;20446;-70
2022/04/06 00:33:43;;;;;;;5.90;3.15;;;9.90;90.40;;;;;;5116187;28;20035;-71
2022/04/06 00:36:08;;;;;;;5.30;2.70;;;9.90;90.40;;;;;;5097914;28;20143;-72
2022/04/06 00:38:34;;;;;;;6.03;2.70;;;9.90;90.40;;;;;;5115641;28;20032;-71
2022/04/06 00:41:00;;;;;;;4.90;2.70;;;9.90;90.40;;;;;;5115414;28;20039;-70
2022/04/06 00:43:25;;;;;;;4.88;2.70;;;9.90;90.40;;;;;;5115861;28;20473;-71
2022/04/06 00:45:51;;;;;;;5.28;1.90;;;9.90;90.40;;;;;;5115950;28;20465;-70
2022/04/06 00:48:17;;;;;;;4.80;2.60;;;9.90;90.40;;;;;;5116156;28;20032;-70
2022/04/06 00:50:44;;;;;;;4.88;2.90;;;9.80;90.40;;;;;;5098142;28;20369;-71
2022/04/06 00:53:12;;;;;;;4.88;2.70;;;9.80;90.40;;;;;;5115533;28;20039;-71
2022/04/06 00:55:39;;;;;;;4.55;2.58;;;9.80;90.40;;;;;;5115414;28;20035;-71
2022/04/06 00:58:05;;;;;;;4.68;2.78;;;9.90;90.40;;;;;;5115712;28;20039;-71
2022/04/06 01:00:31;;;;;;;5.50;2.80;;;9.80;90.30;;;;;;5115723;28;20070;-71
2022/04/06 01:02:58;;;;;;;4.72;2.63;;;9.80;90.30;;;;;;5115432;28;20040;-71
2022/04/06 01:05:25;;;;;;;7.55;3.38;;;9.80;90.40;;;;;;5095127;28;20131;-71
2022/04/06 01:07:54;;;;;;;5.57;2.80;;;9.80;90.30;;;;;;5096531;28;20471;-71
2022/04/06 01:10:21;;;;;;;7.18;3.13;;;9.80;90.30;;;;;;5115032;28;20047;-72
2022/04/06 01:12:47;;;;;;;6.55;3.20;;;9.70;90.30;;;;;;5097019;28;20142;-70
2022/04/06 01:15:14;;;;;;;6.15;3.30;;;9.80;90.40;;;;;;5078578;28;20048;-71
2022/04/06 01:17:40;;;;;;;6.63;3.58;;;9.80;90.30;;;;;;5115527;28;20031;-71
2022/04/06 01:20:08;;;;;;;7.10;3.20;;;9.80;90.30;;;;;;5114921;28;20441;-70
2022/04/06 01:22:34;;;;;;;6.03;3.30;;;9.80;90.30;;;;;;5114857;28;20044;-71
2022/04/06 01:25:01;;;;;;;6.85;3.65;;;9.90;90.30;;;;;;5115237;28;20031;-71
2022/04/06 01:27:27;;;;;;;6.25;3.20;;;9.80;90.30;;;;;;5115478;28;20042;-71
2022/04/06 01:29:54;;;;;;;7.38;2.97;;;9.80;90.30;;;;;;5114963;28;20067;-71
2022/04/06 01:32:22;;;;;;;6.57;3.58;;;9.80;90.30;;;;;;5115080;28;20075;-70
2022/04/06 01:34:50;;;;;;;5.78;3.22;;;9.80;90.30;;;;;;5115416;28;20043;-70
2022/04/06 01:37:16;;;;;;;6.35;2.67;;;9.80;90.20;;;;;;5114598;28;20067;-71
2022/04/06 01:39:45;;;;;;;7.13;2.90;;;9.80;90.20;;;;;;5114490;28;20047;-70
2022/04/06 01:42:12;;;;;;;4.00;2.53;;;9.80;90.20;;;;;;5095968;28;20066;-71
2022/04/06 01:44:38;;;;;;;4.80;2.60;;;9.80;90.20;;;;;;5095588;28;20082;-70
2022/04/06 01:47:07;;;;;;;5.72;2.60;;;9.80;90.20;;;;;;5114899;28;20039;-70
2022/04/06 01:52:12;;;;;;;4.30;2.35;;;9.80;90.20;;;;;;5114370;28;20048;-70
2022/04/06 01:54:56;;;;;;;6.03;2.88;;;9.70;90.20;;;;;;5114344;28;20050;-71
2022/04/06 01:57:23;;;;;;;6.05;2.88;;;9.80;90.20;;;;;;5114287;28;20039;-70
2022/04/06 01:59:50;;;;;;;6.85;2.88;;;9.70;90.20;;;;;;5114435;28;20071;-70
2022/04/06 02:02:19;;;;;;;5.47;2.70;;;9.80;90.20;;;;;;5114278;28;20040;-71
2022/04/06 02:04:45;;;;;;;4.70;2.45;;;9.80;90.20;;;;;;5114176;28;20044;-71
2022/04/06 02:07:13;;;;;;;6.60;2.53;;;9.80;90.20;;;;;;5114394;28;20039;-71
2022/04/06 02:09:39;;;;;;;4.85;2.28;;;9.70;90.20;;;;;;5095055;28;20042;-71
2022/04/06 02:12:06;;;;;;;3.35;1.88;;;9.80;90.20;;;;;;5114248;28;20423;-72
2022/04/06 02:14:33;;;;;;;4.20;2.00;;;9.80;90.20;;;;;;5094050;28;20430;-73
2022/04/06 02:16:59;;;;;;;4.55;2.00;;;9.80;90.20;;;;;;5114223;28;20093;-71
2022/04/06 02:19:24;;;;;;;3.78;2.08;;;9.70;90.20;;;;;;5094784;28;20451;-71
2022/04/06 02:21:50;;;;;;;3.55;2.10;;;9.80;90.20;;;;;;5113997;28;20039;-71
2022/04/06 02:24:17;;;;;;;3.63;2.00;;;9.70;90.10;;;;;;5114046;28;20035;-72
2022/04/06 02:26:43;;;;;;;5.53;2.33;;;9.70;90.10;;;;;;5113677;28;20126;-71
2022/04/06 02:29:09;;;;;;;4.65;1.92;;;9.80;90.10;;;;;;5113972;28;20035;-71
2022/04/06 02:31:34;;;;;;;3.90;1.92;;;9.70;90.10;;;;;;5113704;28;20071;-71
2022/04/06 02:34:00;;;;;;;5.70;1.85;;;9.70;90.10;;;;;;5095614;28;20047;-72
2022/04/06 02:36:26;;;;;;;4.45;1.92;;;9.70;90.10;;;;;;5114070;28;20074;-71
2022/04/06 02:38:52;;;;;;;3.80;1.77;;;9.70;90.10;;;;;;5114084;28;20036;-71
2022/04/06 02:41:19;;;;;;;4.45;2.05;;;9.70;90.10;;;;;;5113890;28;20127;-71
2022/04/06 02:43:44;;;;;;;5.25;2.15;;;9.70;90.10;;;;;;5113914;28;20071;-71
2022/04/06 02:46:10;;;;;;;4.03;1.90;;;9.70;90.10;;;;;;5114221;28;20093;-71
2022/04/06 02:48:36;;;;;;;5.65;1.98;;;9.70;90.10;;;;;;5114163;28;20036;-71
2022/04/06 02:51:01;;;;;;;3.28;1.60;;;9.60;90.10;;;;;;5114205;28;20031;-71
2022/04/06 02:53:27;;;;;;;2.42;1.52;;;9.60;90.10;;;;;;5113597;28;20031;-72
2022/04/06 02:55:53;;;;;;;4.13;2.00;;;9.60;90.10;;;;;;5112995;28;20118;-71
2022/04/06 02:58:19;;;;;;;4.45;2.00;;;9.60;90.10;;;;;;5095459;28;20036;-71
2022/04/06 03:00:44;;;;;;;3.22;1.70;;;9.50;90.00;;;;;;5113451;28;20035;-71
2022/04/06 03:03:10;;;;;;;3.45;1.52;;;9.60;90.00;;;;;;5095338;28;20493;-71
2022/04/06 03:05:36;;;;;;;2.28;1.38;;;9.70;90.10;;;;;;5113891;28;20040;-70
2022/04/06 03:08:01;;;;;;;3.55;1.70;;;9.50;90.00;;;;;;5113871;28;20054;-71
2022/04/06 03:10:27;;;;;;;2.22;1.50;;;9.60;90.30;;;;;;5113678;28;20047;-71
2022/04/06 03:12:53;;;;;;;2.65;1.70;;;9.60;90.00;;;;;;5113473;28;20115;-71
2022/04/06 03:15:19;;;;;;;3.85;1.60;;;9.60;90.00;;;;;;5113834;28;20032;-71
2022/04/06 03:17:44;;;;;;;3.63;1.58;;;9.60;90.00;;;;;;5113686;28;20047;-71
2022/04/06 03:20:13;;;;;;;3.47;1.27;;;9.50;89.90;;;;;;5113328;28;20039;-71
2022/04/06 03:22:39;;;;;;;3.38;1.50;;;9.60;90.00;;;;;;5113148;28;20043;-71
2022/04/06 03:25:06;;;;;;;5.47;1.70;;;9.60;89.90;;;;;;5094972;28;20043;-72
2022/04/06 03:27:33;;;;;;;3.90;1.50;;;9.50;89.80;;;;;;5113465;28;20114;-72
2022/04/06 03:30:01;;;;;;;4.90;1.48;;;9.60;89.80;;;;;;5112993;28;20055;-71
2022/04/06 03:32:27;;;;;;;3.28;1.50;;;9.50;89.70;;;;;;5095173;28;20043;-70
2022/04/06 03:34:53;;;;;;;4.43;1.40;;;9.50;89.70;;;;;;5112988;28;20039;-70
2022/04/06 03:37:18;;;;;;;3.33;1.58;;;9.60;89.70;;;;;;5112962;28;20097;-70
2022/04/06 03:39:44;;;;;;;2.40;1.40;;;9.50;89.60;;;;;;5112883;28;20080;-71
2022/04/06 03:42:10;;;;;;;3.38;1.42;;;9.40;89.50;;;;;;5112566;28;20040;-70
2022/04/06 03:44:35;;;;;;;2.05;1.20;;;9.50;89.90;;;;;;5112810;28;20500;-71
2022/04/06 03:47:01;;;;;;;3.95;1.20;;;9.50;89.50;;;;;;5112865;28;20039;-70
2022/04/06 03:49:27;;;;;;;3.38;1.35;;;9.50;89.50;;;;;;5094405;28;20072;-71
2022/04/06 03:51:52;;;;;;;4.25;1.30;;;9.40;89.40;;;;;;5112532;28;20043;-70
2022/04/06 03:54:18;;;;;;;2.53;1.40;;;9.40;89.40;;;;;;5112752;28;20047;-70
2022/04/06 03:56:44;;;;;;;2.83;1.15;;;9.40;89.30;;;;;;5113091;28;20040;-71
2022/04/06 03:59:10;;;;;;;1.98;1.10;;;9.40;89.30;;;;;;5094300;28;20534;-70
2022/04/06 04:01:36;;;;;;;2.03;1.25;;;9.40;89.20;;;;;;5094812;28;20055;-71
2022/04/06 04:04:04;;;;;;;1.42;0.98;;;9.40;89.20;;;;;;5113323;28;20035;-71
2022/04/06 04:06:30;;;;;;;3.63;1.58;;;9.40;89.20;;;;;;5117136;28;20035;-71
2022/04/06 04:08:57;;;;;;;4.30;1.33;;;9.30;89.10;;;;;;5119420;28;20481;-70
2022/04/06 04:11:22;;;;;;;2.10;0.88;;;9.40;89.10;;;;;;5120072;28;20036;-71
2022/04/06 04:13:49;;;;;;;1.83;1.20;;;9.30;89.10;;;;;;5119433;28;20054;-71
2022/04/06 04:16:15;;;;;;;1.98;0.90;;;9.30;89.00;;;;;;5119489;28;20587;-70
2022/04/06 04:18:42;;;;;;;2.65;1.13;;;9.30;89.00;;;;;;5119055;28;20044;-71
2022/04/06 04:23:44;;;;;;;1.75;0.80;;;9.30;88.90;;;;;;5119140;28;20035;-71
2022/04/06 04:26:10;;;;;;;1.83;0.90;;;9.30;88.90;;;;;;5119376;28;20073;-71
2022/04/06 04:28:35;;;;;;;2.50;1.02;;;9.30;88.90;;;;;;5119198;28;20427;-71
2022/04/06 04:31:01;;;;;;;2.95;1.00;;;9.30;88.80;;;;;;5119219;28;20122;-71
2022/04/06 04:33:27;;;;;;;1.90;0.95;;;9.40;88.80;;;;;;5118963;28;20048;-72
2022/04/06 04:35:53;;;;;;;1.83;0.93;;;9.30;88.70;;;;;;5082629;28;20047;-70
2022/04/06 04:38:18;;;;;;;1.23;0.80;;;9.30;88.70;;;;;;5119343;28;20089;-70
2022/04/06 04:40:44;;;;;;;2.40;0.82;;;9.20;88.60;;;;;;5119015;28;20032;-70
2022/04/06 04:43:10;;;;;;;1.30;0.85;;;9.30;88.60;;;;;;5119662;28;20039;-70
2022/04/06 04:45:35;;;;;;;3.42;1.08;;;9.20;88.50;;;;;;5119725;28;20493;-70
2022/04/06 04:48:01;;;;;;;3.13;0.77;;;9.20;88.50;;;;;;5119694;28;20050;-70
2022/04/06 04:50:27;;;;;;;1.83;0.93;;;9.20;88.50;;;;;;5119421;28;20495;-70
2022/04/06 04:52:53;;;;;;;1.33;0.70;;;9.20;88.40;;;;;;5119275;28;20040;-70
2022/04/06 04:55:18;;;;;;;2.47;0.90;;;9.20;88.40;;;;;;5119063;28;20397;-70
2022/04/06 04:57:45;;;;;;;1.30;0.77;;;9.20;88.30;;;;;;5101051;28;20535;-70
2022/04/06 05:00:12;;;;;;;1.27;0.65;;;9.20;88.30;;;;;;5118957;28;20047;-70
2022/04/06 05:02:38;;;;;;;1.88;0.70;;;9.20;88.30;;;;;;5100401;28;20401;-70
2022/04/06 05:05:07;;;;;;;1.95;0.88;;;9.20;88.20;;;;;;5119283;28;20188;-71
2022/04/06 05:07:37;;;;;;;1.15;0.70;;;9.20;88.30;;;;;;5118438;28;20122;-70
2022/04/06 05:10:06;;;;;;;1.52;1.00;;;9.10;88.20;;;;;;5101145;28;20619;-70
2022/04/06 05:12:31;;;;;;;2.25;1.08;;;9.20;88.20;;;;;;5100861;28;20044;-71
2022/04/06 05:14:59;;;;;;;2.13;1.05;;;9.20;88.20;;;;;;5118364;28;20047;-71
2022/04/06 05:17:25;;;;;;;1.02;0.82;;;9.20;88.20;;;;;;5116551;28;20485;-70
2022/04/06 05:19:52;;;;;;;1.90;0.88;;;9.20;88.10;;;;;;5115192;28;20100;-70
2022/04/06 05:22:17;;;;;;;2.80;1.02;;;9.30;88.20;;;;;;5115237;28;20920;-73
2022/04/06 05:24:43;;;;;;;2.05;1.10;;;9.20;88.00;;;;;;5079080;28;20114;-72
2022/04/06 05:27:09;;;;;;;2.20;1.08;;;9.10;87.90;;;;;;5115058;28;20044;-71
2022/04/06 05:29:35;;;;;;;1.85;0.90;;;9.10;87.90;;;;;;5114996;28;20039;-72
2022/04/06 05:32:01;;;;;;;1.80;0.82;;;9.20;87.90;;;;;;5096870;28;20036;-72
2022/04/06 05:34:26;;;;;;;1.80;0.90;;;9.10;87.90;;;;;;5115158;28;20093;-72
2022/04/06 05:36:52;;;;;;;2.75;1.10;;;9.20;87.90;;;;;;5097029;28;20556;-71
2022/04/06 05:39:18;;;;;;;3.17;0.80;;;9.20;87.90;;;;;;5114833;28;20381;-72
2022/04/06 05:41:44;;;;;;;1.45;0.90;;;9.20;87.80;;;;;;5115025;28;20040;-72
2022/04/06 05:44:09;;;;;;;1.95;1.00;;;9.20;87.70;;;;;;5114894;28;20036;-69
2022/04/06 05:46:35;;;;;;;2.08;0.80;;;9.20;87.70;;;;;;5096070;28;20090;-70
2022/04/06 05:49:01;;;;;;;2.97;0.98;;;9.20;87.60;;;;;;5114667;28;20168;-70
2022/04/06 05:51:26;;;;;;;1.38;0.90;;;9.20;87.60;;;;;;5114735;28;20088;-70
2022/04/06 05:53:52;;;;;;;3.13;1.00;;;9.20;87.60;;;;;;5114814;28;20039;-71
2022/04/06 05:56:18;;;;;;;2.05;0.90;;;9.20;87.60;;;;;;5114410;28;20042;-70
2022/04/06 05:58:44;;;;;;;1.52;0.75;;;9.20;87.50;;;;;;5114574;28;20040;-71
2022/04/06 06:01:10;;;;;;;1.95;0.90;;;9.20;87.50;;;;;;5115088;28;20400;-72
2022/04/06 06:03:35;;;;;;;2.20;0.90;;;9.30;87.50;;;;;;5115348;28;20084;-72
2022/04/06 06:06:02;;;;;;;2.10;0.82;;;9.20;87.40;;;;;;5096672;28;20120;-72
2022/04/06 06:08:28;;;;;;;1.60;0.80;;;9.20;87.30;;;;;;5096833;28;20046;-71
2022/04/06 06:10:55;;;;;;;2.80;0.88;;;9.30;87.30;;;;;;5034979;28;20140;-71
2022/04/06 06:13:21;;;;;;;2.22;1.30;;;9.30;87.30;;;;;;5051682;28;20048;-71
2022/04/06 06:15:47;;;;;;;2.40;1.20;;;9.30;87.20;;;;;;5051606;28;20069;-71
2022/04/06 06:18:13;;;;;;;2.05;1.00;;;9.30;87.20;;;;;;5051359;28;20087;-72
2022/04/06 06:20:39;;;;;;;2.75;0.90;;;9.30;87.10;;;;;;5051324;28;20060;-71
2022/04/06 06:23:05;;;;;;;3.00;1.50;;;9.40;87.10;;;;;;5051102;28;20045;-71
2022/04/06 06:25:30;;;;;;;3.35;1.40;;;9.40;87.00;;;;;;5051886;28;20387;-70
2022/04/06 06:27:56;;;;;;;3.80;1.30;;;9.40;87.00;;;;;;5052092;28;20040;-73
2022/04/06 06:30:24;;;;;;;1.55;1.23;;;9.40;86.90;;;;;;5051311;28;20052;-72
2022/04/06 06:32:50;;;;;;;3.45;1.73;;;9.60;87.00;;;;;;5051624;28;20045;-72
2022/04/06 06:35:16;;;;;;;5.43;1.67;;;9.50;86.90;;;;;;5032500;28;20485;-72
2022/04/06 06:37:47;;;;;;;5.15;1.80;;;9.50;86.80;;;;;;5034599;28;20044;-72
2022/04/06 06:40:13;;;;;;;3.55;1.88;;;9.50;86.80;;;;;;5051269;28;20037;-72
2022/04/06 06:42:39;;;;;;;4.63;1.73;;;9.50;86.70;;;;;;5087638;28;20059;-73
2022/04/06 06:45:06;;;;;;;4.70;2.17;;;9.50;87.30;;;;;;5114049;28;20042;-71
2022/04/06 06:47:31;;;;;;;3.55;1.75;;;9.50;86.60;;;;;;5095748;28;20431;-71
2022/04/06 06:49:57;;;;;;;5.32;1.75;;;9.60;86.70;;;;;;5096123;28;20092;-71
2022/04/06 06:52:23;;;;;;;3.22;1.60;;;9.60;86.70;;;;;;5095471;28;20493;-73
2022/04/06 06:54:48;;;;;;;3.60;1.60;;;9.70;86.70;;;;;;5078757;28;20063;-70
2022/04/06 06:57:14;;;;;;;4.25;1.95;;;9.60;86.60;;;;;;5113950;28;20114;-71
2022/04/06 06:59:41;;;;;;;2.35;1.50;;;9.60;86.60;;;;;;5095742;28;20035;-71
2022/04/06 07:02:08;;;;;;;2.67;1.30;;;9.50;86.50;;;;;;5113532;28;20067;-71
2022/04/06 07:04:34;;;;;;;3.72;1.40;;;9.70;86.70;;;;;;5095459;28;20032;-71
2022/04/06 07:06:59;;;;;;;5.40;1.80;;;9.70;86.70;;;;;;5113516;28;20035;-70
2022/04/06 07:09:25;;;;;;;3.80;1.40;;;9.70;86.60;;;;;;5113710;28;20044;-71
2022/04/06 07:11:52;;;;;;;4.57;1.42;;;9.70;86.60;;;;;;5061627;28;20040;-69
2022/04/06 07:14:18;;;;;;;1.98;1.40;;;9.70;86.50;;;;;;5113419;28;20396;-70
2022/04/06 07:16:44;;;;;;;3.00;1.40;;;9.70;86.50;;;;;;5113918;28;20821;-70
2022/04/06 07:19:10;;;;;;;4.03;1.35;;;9.80;86.40;;;;;;5113217;28;20400;-70
2022/04/06 07:21:35;;;;;;;4.75;1.65;;;9.80;86.90;;;;;;5094833;28;20043;-70
2022/04/06 07:24:02;;;;;;;2.53;1.10;;;9.80;86.30;;;;;;5113311;28;20039;-70
2022/04/06 07:26:28;;;;;;;3.65;1.50;;;9.80;86.20;;;;;;5113220;28;20488;-70
2022/04/06 07:28:53;;;;;;;4.30;1.30;;;9.80;86.20;;;;;;5078216;28;20046;-70
2022/04/06 07:31:19;;;;;;;2.00;0.98;;;9.90;86.10;;;;;;5095210;28;20506;-70
2022/04/06 07:33:45;;;;;;;1.73;0.98;;;9.80;85.90;;;;;;5094931;28;20485;-70
2022/04/06 07:36:11;;;;;;;3.15;1.20;;;9.80;85.80;;;;;;5076640;28;20405;-69
2022/04/06 07:38:36;;;;;;;1.48;0.98;;;9.90;85.80;;;;;;5077988;28;20039;-70
2022/04/06 07:41:02;;;;;;;2.25;1.20;;;9.90;85.70;;;;;;5059943;28;20073;-71
2022/04/06 07:43:28;;;;;;;2.95;0.95;;;9.90;85.70;;;;;;5113457;28;20027;-70
2022/04/06 07:45:54;;;;;;;2.65;1.13;;;9.90;85.60;;;;;;5113089;28;20035;-70
2022/04/06 07:48:19;;;;;;;2.50;0.90;;;9.90;85.50;;;;;;5094785;28;20396;-70
2022/04/06 07:50:45;;;;;;;2.92;1.20;;;10.00;85.40;;;;;;5093454;28;20048;-70
2022/04/06 07:53:11;;;;;;;1.88;0.77;;;10.10;85.20;;;;;;5113480;28;20079;-70
2022/04/06 07:55:37;;;;;;;1.70;0.70;;;10.00;85.10;;;;;;5095162;28;20047;-70
2022/04/06 07:58:03;;;;;;;2.10;0.80;;;10.00;84.90;;;;;;5113418;28;20032;-70
2022/04/06 08:00:33;;;;;;;0.73;0.50;;;10.20;85.00;;;;;;5113448;28;20042;-71
2022/04/06 08:02:59;;;;;;;1.85;0.93;;;10.10;84.80;;;;;;5113036;28;20096;-70
2022/04/06 08:05:25;;;;;;;1.67;0.70;;;10.10;84.80;;;;;;5112983;28;20036;-70
2022/04/06 08:07:53;;;;;;;1.75;0.90;;;10.20;84.60;;;;;;5094542;28;20137;-69
2022/04/06 08:10:20;;;;;;;1.88;1.02;;;10.20;84.40;;;;;;5112589;28;20047;-70
2022/04/06 08:12:47;;;;;;;1.30;0.82;;;10.20;84.40;;;;;;5112470;28;20047;-71
2022/04/06 08:15:14;;;;;;;2.45;0.90;;;10.20;84.20;;;;;;5112637;28;20039;-70
2022/04/06 08:18:11;;;;;;;2.08;0.90;;;10.20;84.10;;;;;;5112585;28;20045;-70
2022/04/06 08:20:37;;;;;;;1.40;1.00;;;10.20;84.00;;;;;;5112830;28;20035;-70
2022/04/06 08:23:03;;;;;;;2.80;0.90;;;10.20;84.00;;;;;;5094927;28;20481;-71
2022/04/06 08:25:29;;;;;;;4.90;0.90;;;10.30;83.90;;;;;;5113284;28;20036;-70
2022/04/06 08:27:55;;;;;;;1.55;0.70;;;10.30;83.80;;;;;;5094458;28;20397;-71
2022/04/06 08:30:22;;;;;;;1.35;0.70;;;10.40;83.80;;;;;;5094429;28;20042;-71
2022/04/06 08:32:48;;;;;;;1.92;0.98;;;10.40;83.60;;;;;;5113041;28;20569;-70
2022/04/06 08:35:14;;;;;;;1.98;0.93;;;10.40;83.60;;;;;;5112531;28;20035;-71
2022/04/06 08:37:40;;;;;;;1.17;0.80;;;10.30;83.50;;;;;;5112261;28;20114;-71
2022/04/06 08:40:10;;;;;;;1.50;0.70;;;10.40;83.60;;;;;;5112768;28;20046;-71
2022/04/06 08:42:37;;;;;;;1.10;0.80;;;10.40;83.60;;;;;;5112779;28;20092;-71
2022/04/06 08:45:05;;;;;;;2.15;0.82;;;10.30;83.40;;;;;;5112062;28;20084;-71
2022/04/06 08:47:31;;;;;;;2.70;0.98;;;10.40;83.40;;;;;;5093797;28;20035;-71
2022/04/06 08:49:58;;;;;;;1.52;0.73;;;10.50;83.50;;;;;;5093977;28;20043;-70
2022/04/06 08:52:24;;;;;;;2.17;0.90;;;10.50;83.60;;;;;;5093823;28;20055;-69
2022/04/06 08:54:50;;;;;;;2.00;1.05;;;10.40;83.30;;;;;;5116120;28;20496;-69
2022/04/06 08:57:18;;;;;;;1.35;0.90;;;10.50;83.30;;;;;;5115939;28;20035;-69
2022/04/06 08:59:46;;;;;;;2.63;1.00;;;10.40;83.20;;;;;;5115423;28;20032;-70
2022/04/06 09:02:17;;;;;;;1.77;1.00;;;10.40;83.20;;;;;;5097101;28;20503;-72
2022/04/06 09:04:43;;;;;;;3.60;1.33;;;10.40;83.30;;;;;;5097919;28;20115;-72
2022/04/06 09:07:10;;;;;;;3.00;1.00;;;10.40;83.40;;;;;;5080315;28;20543;-70
2022/04/06 09:09:36;;;;;;;1.85;0.93;;;10.40;83.50;;;;;;5115449;28;20028;-70
2022/04/06 09:12:10;;;;;;;3.15;1.58;;;10.40;83.50;;;;;;5115824;28;20048;-70
2022/04/06 09:14:36;;;;;;;2.38;1.27;;;10.40;83.60;;;;;;5115773;28;20040;-70
2022/04/06 09:17:04;;;;;;;2.13;1.25;;;10.40;83.60;;;;;;5115469;28;20044;-71
2022/04/06 09:19:30;;;;;;;1.85;1.38;;;10.40;83.60;;;;;;5115403;28;20043;-71
2022/04/06 09:21:56;;;;;;;2.70;1.55;;;10.40;83.60;;;;;;5115324;28;20500;-70
2022/04/06 09:24:24;;;;;;;3.85;1.58;;;10.40;83.80;;;;;;5097073;28;20036;-70
2022/04/06 09:27:05;;;;;;;2.03;1.52;;;10.30;83.80;;;;;;5080176;28;20473;-70
2022/04/06 09:29:34;;;;;;;3.35;1.45;;;10.20;84.10;;;;;;5079914;28;20036;-70
2022/04/06 09:32:08;;;;;;;3.10;1.65;;;10.20;84.30;;;;;;5115501;28;20177;-70
2022/04/06 09:34:34;;;;;;;3.22;1.50;;;10.20;84.60;;;;;;5097081;28;20493;-70
2022/04/06 09:37:22;;;;;;;2.60;1.42;;;10.00;84.60;;;;;;5115001;28;20100;-71
2022/04/06 09:39:48;;;;;;;3.15;1.70;;;10.00;84.80;;;;;;5096837;28;20053;-69
2022/04/06 09:42:23;;;;;;;1.50;1.30;;;10.00;84.90;;;;;;5114830;28;20056;-71
2022/04/06 09:47:40;;;;;;;3.40;1.80;;;9.90;85.20;;;;;;5098581;28;20420;-69
2022/04/06 09:50:14;;;;;;;3.30;2.00;;;9.90;85.40;;;;;;5114900;28;20134;-70
2022/04/06 09:52:42;;;;;;;4.68;1.77;;;9.80;85.50;;;;;;5112372;28;20130;-69
2022/04/06 09:55:10;;;;;;;2.25;1.45;;;9.80;85.60;;;;;;5114761;28;20530;-69
2022/04/06 09:57:44;;;;;;;2.70;1.55;;;9.80;85.80;;;;;;5114765;28;20085;-69
2022/04/06 10:00:13;;;;;;;4.78;1.90;;;9.70;86.60;;;;;;5114944;28;20089;-68
2022/04/06 10:02:40;;;;;;;4.40;1.98;;;9.70;86.00;;;;;;5115026;28;20039;-68
2022/04/06 10:05:10;;;;;;;2.42;1.50;;;9.80;86.10;;;;;;5114351;28;20050;-68
2022/04/06 10:07:37;;;;;;;2.55;1.25;;;9.80;86.20;;;;;;5114693;28;20062;-69
2022/04/06 10:10:04;;;;;;;2.58;1.45;;;9.70;86.20;;;;;;5096234;28;20083;-70
2022/04/06 10:12:31;;;;;;;2.72;1.50;;;9.70;86.20;;;;;;5096174;28;20122;-68
2022/04/06 10:14:59;;;;;;;2.65;1.52;;;9.80;86.20;;;;;;5114303;28;20075;-69
2022/04/06 10:17:26;;;;;;;3.03;1.60;;;9.80;86.30;;;;;;5114950;28;20048;-69
2022/04/06 10:20:02;;;;;;;3.00;1.73;;;9.80;86.40;;;;;;5114290;28;20473;-69
2022/04/06 10:22:38;;;;;;;3.65;1.73;;;9.80;86.50;;;;;;5097047;28;20039;-69
2022/04/06 10:25:16;;;;;;;2.67;1.60;;;9.80;86.70;;;;;;5095921;28;20044;-68
2022/04/06 10:27:51;;;;;;;4.00;1.70;;;9.80;86.80;;;;;;5114022;28;20036;-68
2022/04/06 10:30:22;;;;;;;3.88;1.90;;;9.70;86.70;;;;;;5113714;28;20536;-69
2022/04/06 10:32:49;;;;;;;3.67;2.17;;;9.70;86.90;;;;;;5114467;28;20393;-68
2022/04/06 10:35:33;;;;;;;4.60;1.80;;;9.70;87.00;;;;;;5113794;28;20036;-69
2022/04/06 10:38:20;;;;;;;3.55;1.80;;;9.70;87.10;;;;;;5077658;28;20386;-69
2022/04/06 10:40:59;;;;;;;2.63;1.70;;;9.80;87.30;;;;;;5099152;28;20035;-69
2022/04/06 10:43:44;;;;;;;2.35;1.67;;;9.70;87.30;;;;;;5095513;28;20039;-68
2022/04/06 10:46:15;;;;;;;3.83;1.92;;;9.70;87.40;;;;;;5098997;28;20032;-69
2022/04/06 10:49:10;;;;;;;4.70;1.88;;;9.70;87.60;;;;;;5113956;28;20042;-69
2022/04/06 10:51:38;;;;;;;2.28;1.60;;;9.80;87.40;;;;;;5113729;28;20078;-69
2022/04/06 10:54:38;;;;;;;2.97;1.65;;;9.80;87.50;;;;;;5114132;28;20040;-70
2022/04/06 10:57:04;;;;;;;3.60;2.15;;;9.80;87.50;;;;;;5099609;28;20043;-69
2022/04/06 10:59:29;;;;;;;3.55;1.90;;;9.70;87.50;;;;;;5113770;28;20388;-70
2022/04/06 11:02:18;;;;;;;3.97;1.85;;;9.70;87.70;;;;;;5095645;28;20043;-69
2022/04/06 11:04:44;;;;;;;3.85;2.10;;;9.80;87.90;;;;;;5077015;28;20043;-70
2022/04/06 11:07:10;;;;;;;4.35;1.90;;;9.70;87.80;;;;;;5095181;28;20080;-70
2022/04/06 11:12:24;;;;;;;4.57;2.08;;;9.70;88.00;;;;;;5096523;28;20152;-69
2022/04/06 11:15:20;;;;;;;2.33;1.70;;;9.70;88.10;;;;;;5060726;28;20048;-69
2022/04/06 11:17:48;;;;;;;3.95;2.00;;;9.70;88.70;;;;;;5082423;28;20039;-70
2022/04/06 11:20:18;;;;;;;3.55;1.65;;;9.80;88.10;;;;;;5113547;28;20401;-69
2022/04/06 11:22:53;;;;;;;3.70;1.65;;;9.90;88.10;;;;;;5113380;28;20044;-70
2022/04/06 11:25:22;;;;;;;3.05;1.75;;;9.90;88.00;;;;;;5113174;28;20036;-70
2022/04/06 11:27:48;;;;;;;3.05;1.70;;;9.90;87.90;;;;;;5078603;28;20071;-71
2022/04/06 11:30:18;;;;;;;2.88;2.00;;;9.90;87.90;;;;;;5078303;28;20130;-69
2022/04/06 11:32:56;;;;;;;2.33;1.80;;;10.00;87.90;;;;;;5093555;28;20470;-69
2022/04/06 11:35:28;;;;;;;4.68;1.90;;;10.10;88.00;;;;;;5113324;28;20043;-70
2022/04/06 11:37:54;;;;;;;2.85;1.98;;;10.10;87.90;;;;;;5113331;28;20040;-70
2022/04/06 11:40:22;;;;;;;4.15;2.00;;;10.20;87.80;;;;;;5078277;28;20477;-69
2022/04/06 11:42:50;;;;;;;3.47;1.90;;;10.30;87.70;;;;;;5113652;28;20397;-70
2022/04/06 11:45:23;;;;;;;4.10;1.77;;;10.20;87.70;;;;;;5113690;28;20040;-70
2022/04/06 11:47:54;;;;;;;1.98;1.50;;;10.20;87.70;;;;;;5078550;28;20032;-70
2022/04/06 11:50:20;;;;;;;3.47;1.73;;;10.20;87.70;;;;;;5076852;28;20417;-70
2022/04/06 11:52:46;;;;;;;2.58;1.70;;;10.30;87.80;;;;;;5095296;28;20046;-72
2022/04/06 11:55:12;;;;;;;3.13;1.85;;;10.20;87.80;;;;;;5094675;28;20047;-71
2022/04/06 11:57:42;;;;;;;2.90;1.90;;;10.30;87.80;;;;;;5113090;28;20412;-70
2022/04/06 12:00:10;;;;;;;4.70;2.33;;;10.30;87.90;;;;;;5095687;28;20044;-69
2022/04/06 12:02:48;;;;;;;2.28;1.50;;;10.30;87.80;;;;;;5112715;28;20039;-71
2022/04/06 12:05:14;;;;;;;4.47;1.90;;;10.30;87.80;;;;;;5112200;28;20044;-70
2022/04/06 12:07:39;;;;;;;3.92;1.90;;;10.30;87.90;;;;;;5094752;28;20034;-70
2022/04/06 12:10:06;;;;;;;2.17;1.70;;;10.30;88.00;;;;;;5094950;28;20051;-69
2022/04/06 12:12:36;;;;;;;4.40;1.95;;;10.30;88.00;;;;;;5112508;28;20035;-69
2022/04/06 12:15:04;;;;;;;2.47;1.70;;;10.30;88.10;;;;;;5094514;28;20045;-69
2022/04/06 12:17:31;;;;;;;2.55;1.80;;;10.30;88.00;;;;;;5112531;28;20044;-70
2022/04/06 12:19:57;;;;;;;4.82;2.20;;;10.30;88.00;;;;;;5112470;28;20118;-70
2022/04/06 12:22:26;;;;;;;4.00;1.98;;;10.40;88.00;;;;;;5113079;28;20147;-70
2022/04/06 12:24:53;;;;;;;5.10;2.00;;;10.30;87.90;;;;;;5112741;28;20036;-70
2022/04/06 12:27:30;;;;;;;3.80;1.70;;;10.40;87.80;;;;;;5095876;28;20118;-71
2022/04/06 12:30:10;;;;;;;3.00;1.70;;;10.50;87.80;;;;;;5115960;28;20405;-70
2022/04/06 12:32:52;;;;;;;3.10;1.90;;;10.50;87.50;;;;;;5116250;28;20097;-70
2022/04/06 12:35:20;;;;;;;3.40;1.90;;;10.60;87.50;;;;;;5115942;28;20039;-69
2022/04/06 12:37:46;;;;;;;2.05;1.77;;;10.60;87.30;;;;;;5116485;28;20039;-69
2022/04/06 12:40:21;;;;;;;3.33;2.00;;;10.60;87.10;;;;;;5115886;28;20055;-69
2022/04/06 12:42:47;;;;;;;3.28;2.20;;;10.60;87.70;;;;;;5097058;28;20063;-70
2022/04/06 12:45:13;;;;;;;3.35;1.63;;;10.70;87.10;;;;;;5116365;28;20040;-69
2022/04/06 12:47:39;;;;;;;2.17;1.70;;;10.80;87.00;;;;;;5115780;28;20489;-70
2022/04/06 12:50:21;;;;;;;2.38;1.80;;;10.70;86.80;;;;;;5115870;28;20039;-70
2022/04/06 12:53:01;;;;;;;3.97;1.70;;;10.80;86.80;;;;;;5116256;28;20051;-69
2022/04/06 12:55:27;;;;;;;4.60;1.90;;;11.00;86.60;;;;;;5116341;28;20081;-69
2022/04/06 12:58:12;;;;;;;3.10;2.00;;;10.90;86.30;;;;;;5116354;28;20320;-70
2022/04/06 13:00:38;;;;;;;3.15;1.95;;;10.90;86.30;;;;;;5099735;28;20408;-70
2022/04/06 13:03:05;;;;;;;2.83;1.80;;;10.90;86.20;;;;;;5080475;28;20058;-69
2022/04/06 13:05:31;;;;;;;3.28;1.70;;;10.90;86.30;;;;;;5062620;28;20441;-70
2022/04/06 13:07:57;;;;;;;2.63;1.70;;;10.80;86.40;;;;;;5098117;28;20058;-70
2022/04/06 13:10:33;;;;;;;2.80;1.50;;;10.80;86.60;;;;;;5115911;28;20039;-69